sensor_id;sensor_type;location;lat;lon;timestamp;P1;durP1;ratioP1;P2;durP2;ratioP2
10269;SDS011;70826;50.930;5.334;2024-03-17T00:00:20;42.40;;;40.08;;
10269;SDS011;70826;50.930;5.334;2024-03-17T00:02:46;41.60;;;39.35;;
10269;SDS011;70826;50.930;5.334;2024-03-17T00:05:12;40.25;;;38.05;;
10269;SDS011;70826;50.930;5.334;2024-03-17T00:07:41;42.40;;;40.00;;
10269;SDS011;70826;50.930;5.334;2024-03-17T00:10:07;42.60;;;40.30;;
10269;SDS011;70826;50.930;5.334;2024-03-17T00:12:36;42.15;;;39.75;;
10269;SDS011;70826;50.930;5.334;2024-03-17T00:15:03;42.03;;;39.65;;
10269;SDS011;70826;50.930;5.334;2024-03-17T00:17:29;40.83;;;38.53;;
10269;SDS011;70826;50.930;5.334;2024-03-17T00:19:55;42.13;;;39.80;;
10269;SDS011;70826;50.930;5.334;2024-03-17T00:22:21;40.97;;;38.70;;
10269;SDS011;70826;50.930;5.334;2024-03-17T00:24:49;40.45;;;38.17;;
10269;SDS011;70826;50.930;5.334;2024-03-17T00:27:16;39.72;;;37.55;;
10269;SDS011;70826;50.930;5.334;2024-03-17T00:29:44;41.60;;;39.30;;
10269;SDS011;70826;50.930;5.334;2024-03-17T00:32:10;41.60;;;39.28;;
10269;SDS011;70826;50.930;5.334;2024-03-17T00:34:36;39.28;;;37.08;;
10269;SDS011;70826;50.930;5.334;2024-03-17T00:37:02;42.20;;;39.80;;
10269;SDS011;70826;50.930;5.334;2024-03-17T00:39:28;40.60;;;38.35;;
10269;SDS011;70826;50.930;5.334;2024-03-17T00:41:53;41.47;;;39.17;;
10269;SDS011;70826;50.930;5.334;2024-03-17T00:44:19;41.40;;;39.10;;
10269;SDS011;70826;50.930;5.334;2024-03-17T00:46:45;41.42;;;39.13;;
10269;SDS011;70826;50.930;5.334;2024-03-17T00:49:13;41.58;;;39.28;;
10269;SDS011;70826;50.930;5.334;2024-03-17T00:51:41;43.63;;;41.15;;
10269;SDS011;70826;50.930;5.334;2024-03-17T00:54:07;43.05;;;40.65;;
10269;SDS011;70826;50.930;5.334;2024-03-17T00:56:35;42.10;;;39.80;;
10269;SDS011;70826;50.930;5.334;2024-03-17T00:59:01;43.85;;;41.35;;
10269;SDS011;70826;50.930;5.334;2024-03-17T01:01:26;43.90;;;41.50;;
10269;SDS011;70826;50.930;5.334;2024-03-17T01:03:52;41.00;;;38.75;;
10269;SDS011;70826;50.930;5.334;2024-03-17T01:06:20;41.00;;;38.78;;
10269;SDS011;70826;50.930;5.334;2024-03-17T01:08:46;41.95;;;39.58;;
10269;SDS011;70826;50.930;5.334;2024-03-17T01:11:14;43.22;;;40.83;;
10269;SDS011;70826;50.930;5.334;2024-03-17T01:13:43;43.15;;;40.75;;
10269;SDS011;70826;50.930;5.334;2024-03-17T01:16:11;41.30;;;38.95;;
10269;SDS011;70826;50.930;5.334;2024-03-17T01:18:37;42.15;;;39.75;;
10269;SDS011;70826;50.930;5.334;2024-03-17T01:21:04;42.83;;;40.50;;
10269;SDS011;70826;50.930;5.334;2024-03-17T01:23:33;41.15;;;38.90;;
10269;SDS011;70826;50.930;5.334;2024-03-17T01:25:59;40.28;;;38.05;;
10269;SDS011;70826;50.930;5.334;2024-03-17T01:28:24;40.97;;;38.67;;
10269;SDS011;70826;50.930;5.334;2024-03-17T01:30:51;41.45;;;39.13;;
10269;SDS011;70826;50.930;5.334;2024-03-17T01:33:17;40.90;;;38.67;;
10269;SDS011;70826;50.930;5.334;2024-03-17T01:35:45;41.35;;;39.05;;
10269;SDS011;70826;50.930;5.334;2024-03-17T01:38:11;39.50;;;37.30;;
10269;SDS011;70826;50.930;5.334;2024-03-17T01:40:39;41.05;;;38.85;;
10269;SDS011;70826;50.930;5.334;2024-03-17T01:43:05;42.45;;;40.03;;
10269;SDS011;70826;50.930;5.334;2024-03-17T01:45:35;42.33;;;40.03;;
10269;SDS011;70826;50.930;5.334;2024-03-17T01:48:03;40.35;;;38.13;;
10269;SDS011;70826;50.930;5.334;2024-03-17T01:50:39;43.03;;;40.70;;
10269;SDS011;70826;50.930;5.334;2024-03-17T01:53:09;43.97;;;41.58;;
10269;SDS011;70826;50.930;5.334;2024-03-17T01:55:38;43.65;;;41.15;;
10269;SDS011;70826;50.930;5.334;2024-03-17T01:58:07;42.30;;;39.97;;
10269;SDS011;70826;50.930;5.334;2024-03-17T02:00:36;42.40;;;40.08;;
10269;SDS011;70826;50.930;5.334;2024-03-17T02:03:06;44.15;;;41.65;;
10269;SDS011;70826;50.930;5.334;2024-03-17T02:05:35;42.50;;;40.15;;
10269;SDS011;70826;50.930;5.334;2024-03-17T02:08:03;43.15;;;40.75;;
10269;SDS011;70826;50.930;5.334;2024-03-17T02:10:29;41.03;;;38.72;;
10269;SDS011;70826;50.930;5.334;2024-03-17T02:12:55;41.92;;;39.63;;
10269;SDS011;70826;50.930;5.334;2024-03-17T02:15:23;42.72;;;40.38;;
10269;SDS011;70826;50.930;5.334;2024-03-17T02:17:49;40.80;;;38.60;;
10269;SDS011;70826;50.930;5.334;2024-03-17T02:20:17;42.53;;;40.22;;
10269;SDS011;70826;50.930;5.334;2024-03-17T02:22:43;41.63;;;39.33;;
10269;SDS011;70826;50.930;5.334;2024-03-17T02:25:08;45.65;;;43.08;;
10269;SDS011;70826;50.930;5.334;2024-03-17T02:27:36;39.88;;;37.60;;
10269;SDS011;70826;50.930;5.334;2024-03-17T02:30:02;42.38;;;40.08;;
10269;SDS011;70826;50.930;5.334;2024-03-17T02:32:34;41.60;;;39.30;;
10269;SDS011;70826;50.930;5.334;2024-03-17T02:35:00;42.17;;;39.85;;
10269;SDS011;70826;50.930;5.334;2024-03-17T02:37:30;42.03;;;39.72;;
10269;SDS011;70826;50.930;5.334;2024-03-17T02:39:58;42.42;;;40.13;;
10269;SDS011;70826;50.930;5.334;2024-03-17T02:42:23;42.03;;;39.70;;
10269;SDS011;70826;50.930;5.334;2024-03-17T02:44:51;41.92;;;39.55;;
10269;SDS011;70826;50.930;5.334;2024-03-17T02:47:17;43.55;;;41.15;;
10269;SDS011;70826;50.930;5.334;2024-03-17T02:49:42;41.25;;;38.95;;
10269;SDS011;70826;50.930;5.334;2024-03-17T02:52:11;43.45;;;41.10;;
10269;SDS011;70826;50.930;5.334;2024-03-17T02:54:37;43.30;;;40.90;;
10269;SDS011;70826;50.930;5.334;2024-03-17T02:57:03;42.72;;;40.38;;
10269;SDS011;70826;50.930;5.334;2024-03-17T02:59:29;42.75;;;40.35;;
10269;SDS011;70826;50.930;5.334;2024-03-17T03:01:56;38.97;;;36.78;;
10269;SDS011;70826;50.930;5.334;2024-03-17T03:04:24;43.22;;;40.83;;
10269;SDS011;70826;50.930;5.334;2024-03-17T03:06:50;42.80;;;40.40;;
10269;SDS011;70826;50.930;5.334;2024-03-17T03:09:15;43.30;;;40.90;;
10269;SDS011;70826;50.930;5.334;2024-03-17T03:11:47;42.38;;;40.00;;
10269;SDS011;70826;50.930;5.334;2024-03-17T03:14:14;43.90;;;41.38;;
10269;SDS011;70826;50.930;5.334;2024-03-17T03:16:40;42.00;;;39.67;;
10269;SDS011;70826;50.930;5.334;2024-03-17T03:19:06;41.05;;;38.80;;
10269;SDS011;70826;50.930;5.334;2024-03-17T03:21:34;42.85;;;40.45;;
10269;SDS011;70826;50.930;5.334;2024-03-17T03:24:04;42.38;;;39.97;;
10269;SDS011;70826;50.930;5.334;2024-03-17T03:26:31;40.35;;;38.05;;
10269;SDS011;70826;50.930;5.334;2024-03-17T03:28:58;42.80;;;40.47;;
10269;SDS011;70826;50.930;5.334;2024-03-17T03:31:24;43.17;;;40.67;;
10269;SDS011;70826;50.930;5.334;2024-03-17T03:33:49;44.95;;;42.45;;
10269;SDS011;70826;50.930;5.334;2024-03-17T03:36:15;42.95;;;40.50;;
10269;SDS011;70826;50.930;5.334;2024-03-17T03:38:44;42.10;;;39.80;;
10269;SDS011;70826;50.930;5.334;2024-03-17T03:41:17;43.97;;;41.47;;
10269;SDS011;70826;50.930;5.334;2024-03-17T03:43:42;42.30;;;39.97;;
10269;SDS011;70826;50.930;5.334;2024-03-17T03:46:16;43.67;;;41.28;;
10269;SDS011;70826;50.930;5.334;2024-03-17T03:48:43;43.70;;;41.20;;
10269;SDS011;70826;50.930;5.334;2024-03-17T03:51:09;41.45;;;39.15;;
10269;SDS011;70826;50.930;5.334;2024-03-17T03:53:35;40.72;;;38.50;;
10269;SDS011;70826;50.930;5.334;2024-03-17T03:56:07;41.97;;;39.67;;
10269;SDS011;70826;50.930;5.334;2024-03-17T03:58:33;41.78;;;39.47;;
10269;SDS011;70826;50.930;5.334;2024-03-17T04:01:05;42.22;;;39.83;;
10269;SDS011;70826;50.930;5.334;2024-03-17T04:03:31;41.65;;;39.35;;
10269;SDS011;70826;50.930;5.334;2024-03-17T04:06:04;43.20;;;40.83;;
10269;SDS011;70826;50.930;5.334;2024-03-17T04:08:35;41.58;;;39.28;;
10269;SDS011;70826;50.930;5.334;2024-03-17T04:11:01;43.70;;;41.30;;
10269;SDS011;70826;50.930;5.334;2024-03-17T04:13:31;41.70;;;39.33;;
10269;SDS011;70826;50.930;5.334;2024-03-17T04:15:58;43.45;;;41.05;;
10269;SDS011;70826;50.930;5.334;2024-03-17T04:18:25;42.65;;;40.28;;
10269;SDS011;70826;50.930;5.334;2024-03-17T04:20:52;42.00;;;39.70;;
10269;SDS011;70826;50.930;5.334;2024-03-17T04:23:19;42.15;;;39.83;;
10269;SDS011;70826;50.930;5.334;2024-03-17T04:25:46;40.70;;;38.47;;
10269;SDS011;70826;50.930;5.334;2024-03-17T04:28:15;41.53;;;39.22;;
10269;SDS011;70826;50.930;5.334;2024-03-17T04:30:43;41.90;;;39.60;;
10269;SDS011;70826;50.930;5.334;2024-03-17T04:33:10;42.67;;;40.30;;
10269;SDS011;70826;50.930;5.334;2024-03-17T04:35:36;39.20;;;37.05;;
10269;SDS011;70826;50.930;5.334;2024-03-17T04:38:02;41.08;;;38.83;;
10269;SDS011;70826;50.930;5.334;2024-03-17T04:40:28;39.85;;;37.65;;
10269;SDS011;70826;50.930;5.334;2024-03-17T04:42:58;40.75;;;38.50;;
10269;SDS011;70826;50.930;5.334;2024-03-17T04:45:24;41.38;;;39.08;;
10269;SDS011;70826;50.930;5.334;2024-03-17T04:47:51;39.35;;;37.13;;
10269;SDS011;70826;50.930;5.334;2024-03-17T04:50:17;38.28;;;36.17;;
10269;SDS011;70826;50.930;5.334;2024-03-17T04:52:46;40.17;;;37.90;;
10269;SDS011;70826;50.930;5.334;2024-03-17T04:55:12;42.65;;;40.35;;
10269;SDS011;70826;50.930;5.334;2024-03-17T04:57:37;41.60;;;39.30;;
10269;SDS011;70826;50.930;5.334;2024-03-17T05:00:03;40.22;;;38.03;;
10269;SDS011;70826;50.930;5.334;2024-03-17T05:02:32;38.92;;;36.80;;
10269;SDS011;70826;50.930;5.334;2024-03-17T05:05:00;40.28;;;38.05;;
10269;SDS011;70826;50.930;5.334;2024-03-17T05:07:30;38.15;;;36.05;;
10269;SDS011;70826;50.930;5.334;2024-03-17T05:09:58;40.60;;;38.38;;
10269;SDS011;70826;50.930;5.334;2024-03-17T05:12:24;39.50;;;37.35;;
10269;SDS011;70826;50.930;5.334;2024-03-17T05:14:50;39.58;;;37.45;;
10269;SDS011;70826;50.930;5.334;2024-03-17T05:17:15;39.83;;;37.65;;
10269;SDS011;70826;50.930;5.334;2024-03-17T05:19:41;38.65;;;36.55;;
10269;SDS011;70826;50.930;5.334;2024-03-17T05:22:07;39.67;;;37.47;;
10269;SDS011;70826;50.930;5.334;2024-03-17T05:24:35;39.65;;;37.40;;
10269;SDS011;70826;50.930;5.334;2024-03-17T05:27:01;40.95;;;38.75;;
10269;SDS011;70826;50.930;5.334;2024-03-17T05:29:27;42.28;;;39.90;;
10269;SDS011;70826;50.930;5.334;2024-03-17T05:31:52;38.50;;;36.40;;
10269;SDS011;70826;50.930;5.334;2024-03-17T05:34:18;40.28;;;38.08;;
10269;SDS011;70826;50.930;5.334;2024-03-17T05:36:44;40.72;;;38.50;;
10269;SDS011;70826;50.930;5.334;2024-03-17T05:39:09;39.25;;;37.15;;
10269;SDS011;70826;50.930;5.334;2024-03-17T05:41:35;41.58;;;39.28;;
10269;SDS011;70826;50.930;5.334;2024-03-17T05:44:01;40.55;;;38.35;;
10269;SDS011;70826;50.930;5.334;2024-03-17T05:46:28;38.90;;;36.80;;
10269;SDS011;70826;50.930;5.334;2024-03-17T05:48:56;41.67;;;39.38;;
10269;SDS011;70826;50.930;5.334;2024-03-17T05:51:21;39.15;;;37.05;;
10269;SDS011;70826;50.930;5.334;2024-03-17T05:53:50;42.30;;;40.00;;
10269;SDS011;70826;50.930;5.334;2024-03-17T05:56:16;41.83;;;39.53;;
10269;SDS011;70826;50.930;5.334;2024-03-17T05:58:42;42.15;;;39.85;;
10269;SDS011;70826;50.930;5.334;2024-03-17T06:01:08;42.00;;;39.70;;
10269;SDS011;70826;50.930;5.334;2024-03-17T06:03:34;40.53;;;38.22;;
10269;SDS011;70826;50.930;5.334;2024-03-17T06:06:03;39.30;;;37.17;;
10269;SDS011;70826;50.930;5.334;2024-03-17T06:08:34;40.47;;;38.28;;
10269;SDS011;70826;50.930;5.334;2024-03-17T06:11:00;39.75;;;37.55;;
10269;SDS011;70826;50.930;5.334;2024-03-17T06:13:31;40.78;;;38.47;;
10269;SDS011;70826;50.930;5.334;2024-03-17T06:16:02;39.67;;;37.50;;
10269;SDS011;70826;50.930;5.334;2024-03-17T06:18:28;40.40;;;38.20;;
10269;SDS011;70826;50.930;5.334;2024-03-17T06:20:54;39.50;;;37.38;;
10269;SDS011;70826;50.930;5.334;2024-03-17T06:23:23;41.03;;;38.72;;
10269;SDS011;70826;50.930;5.334;2024-03-17T06:25:49;40.90;;;38.65;;
10269;SDS011;70826;50.930;5.334;2024-03-17T06:28:16;37.17;;;35.17;;
10269;SDS011;70826;50.930;5.334;2024-03-17T06:30:46;39.47;;;37.35;;
10269;SDS011;70826;50.930;5.334;2024-03-17T06:33:24;38.08;;;35.97;;
10269;SDS011;70826;50.930;5.334;2024-03-17T06:35:50;39.50;;;37.38;;
10269;SDS011;70826;50.930;5.334;2024-03-17T06:38:20;41.22;;;38.90;;
10269;SDS011;70826;50.930;5.334;2024-03-17T06:40:52;41.58;;;39.30;;
10269;SDS011;70826;50.930;5.334;2024-03-17T06:43:18;42.03;;;39.72;;
10269;SDS011;70826;50.930;5.334;2024-03-17T06:48:22;39.17;;;37.03;;
10269;SDS011;70826;50.930;5.334;2024-03-17T06:50:49;41.40;;;39.10;;
10269;SDS011;70826;50.930;5.334;2024-03-17T06:53:17;38.85;;;36.72;;
10269;SDS011;70826;50.930;5.334;2024-03-17T06:55:44;43.28;;;40.88;;
10269;SDS011;70826;50.930;5.334;2024-03-17T06:58:16;39.83;;;37.72;;
10269;SDS011;70826;50.930;5.334;2024-03-17T07:00:54;41.03;;;38.83;;
10269;SDS011;70826;50.930;5.334;2024-03-17T07:03:24;44.15;;;41.75;;
10269;SDS011;70826;50.930;5.334;2024-03-17T07:05:54;42.53;;;40.22;;
10269;SDS011;70826;50.930;5.334;2024-03-17T07:08:24;41.10;;;38.83;;
10269;SDS011;70826;50.930;5.334;2024-03-17T07:13:28;39.45;;;37.35;;
10269;SDS011;70826;50.930;5.334;2024-03-17T07:16:09;40.88;;;38.65;;
10269;SDS011;70826;50.930;5.334;2024-03-17T07:18:37;39.67;;;37.58;;
10269;SDS011;70826;50.930;5.334;2024-03-17T07:21:07;41.78;;;39.55;;
10269;SDS011;70826;50.930;5.334;2024-03-17T07:23:35;38.13;;;35.97;;
10269;SDS011;70826;50.930;5.334;2024-03-17T07:26:01;37.70;;;35.58;;
10269;SDS011;70826;50.930;5.334;2024-03-17T07:28:30;38.58;;;36.38;;
10269;SDS011;70826;50.930;5.334;2024-03-17T07:30:57;33.90;;;32.03;;
10269;SDS011;70826;50.930;5.334;2024-03-17T07:33:27;35.25;;;33.28;;
10269;SDS011;70826;50.930;5.334;2024-03-17T07:35:53;35.33;;;33.38;;
10269;SDS011;70826;50.930;5.334;2024-03-17T07:38:22;35.25;;;33.28;;
10269;SDS011;70826;50.930;5.334;2024-03-17T07:41:01;36.03;;;33.97;;
10269;SDS011;70826;50.930;5.334;2024-03-17T07:43:29;35.03;;;33.03;;
10269;SDS011;70826;50.930;5.334;2024-03-17T07:45:57;36.83;;;34.80;;
10269;SDS011;70826;50.930;5.334;2024-03-17T07:48:33;37.72;;;35.65;;
10269;SDS011;70826;50.930;5.334;2024-03-17T07:51:07;35.97;;;33.97;;
10269;SDS011;70826;50.930;5.334;2024-03-17T07:53:42;26.92;;;25.42;;
10269;SDS011;70826;50.930;5.334;2024-03-17T07:56:10;22.00;;;20.70;;
10269;SDS011;70826;50.930;5.334;2024-03-17T07:58:40;28.77;;;27.17;;
10269;SDS011;70826;50.930;5.334;2024-03-17T08:01:13;30.85;;;29.25;;
10269;SDS011;70826;50.930;5.334;2024-03-17T08:03:40;29.73;;;28.20;;
10269;SDS011;70826;50.930;5.334;2024-03-17T08:06:09;31.08;;;29.40;;
10269;SDS011;70826;50.930;5.334;2024-03-17T08:08:36;31.20;;;29.60;;
10269;SDS011;70826;50.930;5.334;2024-03-17T08:11:04;31.52;;;29.83;;
10269;SDS011;70826;50.930;5.334;2024-03-17T08:13:30;31.80;;;30.05;;
10269;SDS011;70826;50.930;5.334;2024-03-17T08:16:03;31.20;;;29.60;;
10269;SDS011;70826;50.930;5.334;2024-03-17T08:18:35;34.25;;;32.45;;
10269;SDS011;70826;50.930;5.334;2024-03-17T08:21:02;33.85;;;32.05;;
10269;SDS011;70826;50.930;5.334;2024-03-17T08:23:31;32.50;;;30.83;;
10269;SDS011;70826;50.930;5.334;2024-03-17T08:25:58;33.17;;;31.17;;
10269;SDS011;70826;50.930;5.334;2024-03-17T08:28:25;33.33;;;31.52;;
10269;SDS011;70826;50.930;5.334;2024-03-17T08:33:20;34.17;;;32.38;;
10269;SDS011;70826;50.930;5.334;2024-03-17T08:35:57;34.05;;;32.17;;
10269;SDS011;70826;50.930;5.334;2024-03-17T08:38:24;33.13;;;31.33;;
10269;SDS011;70826;50.930;5.334;2024-03-17T08:40:52;32.78;;;31.05;;
10269;SDS011;70826;50.930;5.334;2024-03-17T08:43:19;32.70;;;30.98;;
10269;SDS011;70826;50.930;5.334;2024-03-17T08:45:59;34.25;;;32.25;;
10269;SDS011;70826;50.930;5.334;2024-03-17T08:48:33;33.10;;;31.30;;
10269;SDS011;70826;50.930;5.334;2024-03-17T08:51:00;32.13;;;30.42;;
10269;SDS011;70826;50.930;5.334;2024-03-17T08:53:29;33.97;;;32.25;;
10269;SDS011;70826;50.930;5.334;2024-03-17T08:56:00;34.85;;;32.92;;
10269;SDS011;70826;50.930;5.334;2024-03-17T08:58:28;33.47;;;31.75;;
10269;SDS011;70826;50.930;5.334;2024-03-17T09:00:56;33.22;;;31.38;;
10269;SDS011;70826;50.930;5.334;2024-03-17T09:03:21;33.03;;;31.23;;
10269;SDS011;70826;50.930;5.334;2024-03-17T09:05:51;33.97;;;32.17;;
10269;SDS011;70826;50.930;5.334;2024-03-17T09:08:20;33.78;;;31.88;;
10269;SDS011;70826;50.930;5.334;2024-03-17T09:10:52;33.47;;;31.52;;
10269;SDS011;70826;50.930;5.334;2024-03-17T09:13:21;33.60;;;31.80;;
10269;SDS011;70826;50.930;5.334;2024-03-17T09:15:55;33.33;;;31.42;;
10269;SDS011;70826;50.930;5.334;2024-03-17T09:18:25;34.38;;;32.42;;
10269;SDS011;70826;50.930;5.334;2024-03-17T09:20:56;32.30;;;30.60;;
10269;SDS011;70826;50.930;5.334;2024-03-17T09:23:22;34.88;;;33.03;;
10269;SDS011;70826;50.930;5.334;2024-03-17T09:25:54;34.65;;;32.85;;
10269;SDS011;70826;50.930;5.334;2024-03-17T09:28:21;34.17;;;32.28;;
10269;SDS011;70826;50.930;5.334;2024-03-17T09:30:47;34.78;;;32.88;;
10269;SDS011;70826;50.930;5.334;2024-03-17T09:33:12;35.72;;;33.80;;
10269;SDS011;70826;50.930;5.334;2024-03-17T09:35:43;33.80;;;32.00;;
10269;SDS011;70826;50.930;5.334;2024-03-17T09:38:17;36.72;;;34.75;;
10269;SDS011;70826;50.930;5.334;2024-03-17T09:40:46;36.95;;;34.92;;
10269;SDS011;70826;50.930;5.334;2024-03-17T09:43:16;36.03;;;34.13;;
10269;SDS011;70826;50.930;5.334;2024-03-17T09:45:44;35.33;;;33.42;;
10269;SDS011;70826;50.930;5.334;2024-03-17T09:48:11;35.92;;;33.97;;
10269;SDS011;70826;50.930;5.334;2024-03-17T09:50:41;35.47;;;33.55;;
10269;SDS011;70826;50.930;5.334;2024-03-17T09:53:06;34.42;;;32.60;;
10269;SDS011;70826;50.930;5.334;2024-03-17T09:55:43;36.85;;;34.88;;
10269;SDS011;70826;50.930;5.334;2024-03-17T09:58:15;36.55;;;34.50;;
10269;SDS011;70826;50.930;5.334;2024-03-17T10:00:42;35.42;;;33.45;;
10269;SDS011;70826;50.930;5.334;2024-03-17T10:03:11;35.65;;;33.72;;
10269;SDS011;70826;50.930;5.334;2024-03-17T10:05:37;36.63;;;34.63;;
10269;SDS011;70826;50.930;5.334;2024-03-17T10:08:03;37.13;;;35.13;;
10269;SDS011;70826;50.930;5.334;2024-03-17T10:10:31;37.78;;;35.72;;
10269;SDS011;70826;50.930;5.334;2024-03-17T10:12:57;36.05;;;34.15;;
10269;SDS011;70826;50.930;5.334;2024-03-17T10:15:23;36.42;;;34.47;;
10269;SDS011;70826;50.930;5.334;2024-03-17T10:17:49;36.70;;;34.70;;
10269;SDS011;70826;50.930;5.334;2024-03-17T10:20:15;36.30;;;34.30;;
10269;SDS011;70826;50.930;5.334;2024-03-17T10:25:31;36.58;;;34.58;;
10269;SDS011;70826;50.930;5.334;2024-03-17T10:28:01;39.38;;;37.22;;
10269;SDS011;70826;50.930;5.334;2024-03-17T10:30:34;37.72;;;35.72;;
10269;SDS011;70826;50.930;5.334;2024-03-17T10:33:01;38.03;;;35.92;;
10269;SDS011;70826;50.930;5.334;2024-03-17T10:35:34;38.33;;;36.28;;
10269;SDS011;70826;50.930;5.334;2024-03-17T10:38:06;39.28;;;37.13;;
10269;SDS011;70826;50.930;5.334;2024-03-17T10:40:34;38.58;;;36.50;;
10269;SDS011;70826;50.930;5.334;2024-03-17T10:43:03;38.40;;;36.20;;
10269;SDS011;70826;50.930;5.334;2024-03-17T10:45:34;38.15;;;36.05;;
10269;SDS011;70826;50.930;5.334;2024-03-17T10:48:06;38.10;;;36.08;;
10269;SDS011;70826;50.930;5.334;2024-03-17T10:50:37;40.60;;;38.38;;
10269;SDS011;70826;50.930;5.334;2024-03-17T10:53:05;39.88;;;37.78;;
10269;SDS011;70826;50.930;5.334;2024-03-17T10:55:43;40.53;;;38.22;;
10269;SDS011;70826;50.930;5.334;2024-03-17T10:58:18;39.78;;;37.67;;
10269;SDS011;70826;50.930;5.334;2024-03-17T11:01:13;40.30;;;38.13;;
10269;SDS011;70826;50.930;5.334;2024-03-17T11:03:40;41.20;;;38.97;;
10269;SDS011;70826;50.930;5.334;2024-03-17T11:06:06;41.47;;;39.28;;
10269;SDS011;70826;50.930;5.334;2024-03-17T11:08:37;41.35;;;39.05;;
10269;SDS011;70826;50.930;5.334;2024-03-17T11:11:07;41.58;;;39.30;;
10269;SDS011;70826;50.930;5.334;2024-03-17T11:13:35;40.00;;;37.85;;
10269;SDS011;70826;50.930;5.334;2024-03-17T11:16:04;41.20;;;38.95;;
10269;SDS011;70826;50.930;5.334;2024-03-17T11:18:49;39.55;;;37.45;;
10269;SDS011;70826;50.930;5.334;2024-03-17T11:21:19;40.53;;;38.33;;
10269;SDS011;70826;50.930;5.334;2024-03-17T11:23:56;42.40;;;40.10;;
10269;SDS011;70826;50.930;5.334;2024-03-17T11:26:29;42.28;;;39.97;;
10269;SDS011;70826;50.930;5.334;2024-03-17T11:29:01;43.65;;;41.25;;
10269;SDS011;70826;50.930;5.334;2024-03-17T11:31:38;41.88;;;39.47;;
10269;SDS011;70826;50.930;5.334;2024-03-17T11:34:29;42.97;;;40.65;;
10269;SDS011;70826;50.930;5.334;2024-03-17T11:36:53;41.50;;;39.17;;
10269;SDS011;70826;50.930;5.334;2024-03-17T11:39:19;41.63;;;39.40;;
10269;SDS011;70826;50.930;5.334;2024-03-17T11:41:50;42.78;;;40.38;;
10269;SDS011;70826;50.930;5.334;2024-03-17T11:46:46;41.53;;;39.28;;
10269;SDS011;70826;50.930;5.334;2024-03-17T11:49:20;41.92;;;39.65;;
10269;SDS011;70826;50.930;5.334;2024-03-17T11:51:47;42.92;;;40.63;;
10269;SDS011;70826;50.930;5.334;2024-03-17T11:54:19;43.15;;;40.80;;
10269;SDS011;70826;50.930;5.334;2024-03-17T11:56:50;42.92;;;40.63;;
10269;SDS011;70826;50.930;5.334;2024-03-17T11:59:17;41.95;;;39.65;;
10269;SDS011;70826;50.930;5.334;2024-03-17T12:01:47;42.05;;;39.72;;
10269;SDS011;70826;50.930;5.334;2024-03-17T12:04:14;42.22;;;39.90;;
10269;SDS011;70826;50.930;5.334;2024-03-17T12:06:59;43.90;;;41.40;;
10269;SDS011;70826;50.930;5.334;2024-03-17T12:09:26;43.40;;;41.05;;
10269;SDS011;70826;50.930;5.334;2024-03-17T12:14:31;45.22;;;42.72;;
10269;SDS011;70826;50.930;5.334;2024-03-17T12:17:09;44.10;;;41.70;;
10269;SDS011;70826;50.930;5.334;2024-03-17T12:19:36;47.10;;;44.53;;
10269;SDS011;70826;50.930;5.334;2024-03-17T12:22:03;47.65;;;45.05;;
10269;SDS011;70826;50.930;5.334;2024-03-17T12:24:32;48.47;;;45.78;;
10269;SDS011;70826;50.930;5.334;2024-03-17T12:27:04;46.35;;;43.85;;
10269;SDS011;70826;50.930;5.334;2024-03-17T12:29:37;46.10;;;43.58;;
10269;SDS011;70826;50.930;5.334;2024-03-17T12:34:37;47.00;;;44.30;;
10269;SDS011;70826;50.930;5.334;2024-03-17T12:37:12;46.17;;;43.67;;
10269;SDS011;70826;50.930;5.334;2024-03-17T12:39:45;46.70;;;44.10;;
10269;SDS011;70826;50.930;5.334;2024-03-17T12:42:16;48.22;;;45.60;;
10269;SDS011;70826;50.930;5.334;2024-03-17T12:49:50;46.47;;;43.92;;
10269;SDS011;70826;50.930;5.334;2024-03-17T12:52:24;45.78;;;43.28;;
10269;SDS011;70826;50.930;5.334;2024-03-17T12:55:03;48.75;;;46.05;;
10269;SDS011;70826;50.930;5.334;2024-03-17T12:57:49;47.47;;;44.90;;
10269;SDS011;70826;50.930;5.334;2024-03-17T13:00:33;46.47;;;43.97;;
10269;SDS011;70826;50.930;5.334;2024-03-17T13:03:06;47.88;;;45.20;;
10269;SDS011;70826;50.930;5.334;2024-03-17T13:05:33;48.38;;;45.75;;
10269;SDS011;70826;50.930;5.334;2024-03-17T13:08:02;50.22;;;47.42;;
10269;SDS011;70826;50.930;5.334;2024-03-17T13:10:29;46.67;;;44.13;;
10269;SDS011;70826;50.930;5.334;2024-03-17T13:13:04;50.00;;;47.22;;
10269;SDS011;70826;50.930;5.334;2024-03-17T13:15:35;50.88;;;48.08;;
10269;SDS011;70826;50.930;5.334;2024-03-17T13:18:03;49.60;;;46.83;;
10269;SDS011;70826;50.930;5.334;2024-03-17T13:20:30;50.88;;;48.08;;
10269;SDS011;70826;50.930;5.334;2024-03-17T13:22:57;51.03;;;48.28;;
10269;SDS011;70826;50.930;5.334;2024-03-17T13:25:26;48.70;;;45.90;;
10269;SDS011;70826;50.930;5.334;2024-03-17T13:27:59;50.00;;;47.28;;
10269;SDS011;70826;50.930;5.334;2024-03-17T13:30:25;50.33;;;47.60;;
10269;SDS011;70826;50.930;5.334;2024-03-17T13:32:53;50.00;;;47.30;;
10269;SDS011;70826;50.930;5.334;2024-03-17T13:35:33;50.90;;;48.13;;
10269;SDS011;70826;50.930;5.334;2024-03-17T13:38:00;49.40;;;46.70;;
10269;SDS011;70826;50.930;5.334;2024-03-17T13:40:27;50.58;;;47.78;;
10269;SDS011;70826;50.930;5.334;2024-03-17T13:42:56;52.08;;;49.25;;
10269;SDS011;70826;50.930;5.334;2024-03-17T13:45:25;50.28;;;47.55;;
10269;SDS011;70826;50.930;5.334;2024-03-17T13:48:00;50.58;;;47.88;;
10269;SDS011;70826;50.930;5.334;2024-03-17T13:50:29;49.85;;;47.15;;
10269;SDS011;70826;50.930;5.334;2024-03-17T13:52:55;51.33;;;48.50;;
10269;SDS011;70826;50.930;5.334;2024-03-17T13:55:23;49.92;;;47.15;;
10269;SDS011;70826;50.930;5.334;2024-03-17T13:57:53;52.85;;;49.92;;
10269;SDS011;70826;50.930;5.334;2024-03-17T14:00:26;51.92;;;49.08;;
10269;SDS011;70826;50.930;5.334;2024-03-17T14:02:56;49.40;;;46.63;;
10269;SDS011;70826;50.930;5.334;2024-03-17T14:05:23;49.42;;;46.75;;
10269;SDS011;70826;50.930;5.334;2024-03-17T14:07:51;49.15;;;46.53;;
10269;SDS011;70826;50.930;5.334;2024-03-17T14:10:19;49.67;;;46.95;;
10269;SDS011;70826;50.930;5.334;2024-03-17T14:12:48;52.42;;;49.53;;
10269;SDS011;70826;50.930;5.334;2024-03-17T14:15:14;52.08;;;49.15;;
10269;SDS011;70826;50.930;5.334;2024-03-17T14:17:41;51.28;;;48.53;;
10269;SDS011;70826;50.930;5.334;2024-03-17T14:20:11;50.78;;;48.05;;
10269;SDS011;70826;50.930;5.334;2024-03-17T14:22:44;49.28;;;46.47;;
10269;SDS011;70826;50.930;5.334;2024-03-17T14:25:15;51.28;;;48.42;;
10269;SDS011;70826;50.930;5.334;2024-03-17T14:27:50;49.97;;;47.25;;
10269;SDS011;70826;50.930;5.334;2024-03-17T14:30:18;54.75;;;51.70;;
10269;SDS011;70826;50.930;5.334;2024-03-17T14:32:46;52.13;;;49.22;;
10269;SDS011;70826;50.930;5.334;2024-03-17T14:35:15;53.42;;;50.50;;
10269;SDS011;70826;50.930;5.334;2024-03-17T14:37:42;51.22;;;48.45;;
10269;SDS011;70826;50.930;5.334;2024-03-17T14:40:12;52.25;;;49.40;;
10269;SDS011;70826;50.930;5.334;2024-03-17T14:42:54;49.97;;;47.25;;
10269;SDS011;70826;50.930;5.334;2024-03-17T14:45:22;53.78;;;50.72;;
10269;SDS011;70826;50.930;5.334;2024-03-17T14:47:49;55.13;;;52.05;;
10269;SDS011;70826;50.930;5.334;2024-03-17T14:50:15;52.30;;;49.42;;
10269;SDS011;70826;50.930;5.334;2024-03-17T14:52:44;53.67;;;50.67;;